sensor_id;sensor_type;location;lat;lon;timestamp;temperature;humidity
66102;HTU21D;52883;51.094;5.880;2022-10-20T00:00:21;11.30;118.99
66102;HTU21D;52883;51.094;5.880;2022-10-20T00:02:47;11.29;118.99
66102;HTU21D;52883;51.094;5.880;2022-10-20T00:05:13;11.24;118.99
66102;HTU21D;52883;51.094;5.880;2022-10-20T00:07:39;11.23;118.99
66102;HTU21D;52883;51.094;5.880;2022-10-20T00:10:05;11.24;118.99
66102;HTU21D;52883;51.094;5.880;2022-10-20T00:12:31;11.18;118.99
66102;HTU21D;52883;51.094;5.880;2022-10-20T00:14:56;11.14;118.99
66102;HTU21D;52883;51.094;5.880;2022-10-20T00:17:22;11.10;118.99
66102;HTU21D;52883;51.094;5.880;2022-10-20T00:19:47;11.02;118.99
66102;HTU21D;52883;51.094;5.880;2022-10-20T00:22:13;11.02;118.99
66102;HTU21D;52883;51.094;5.880;2022-10-20T00:24:39;11.01;118.99
66102;HTU21D;52883;51.094;5.880;2022-10-20T00:27:04;10.98;118.99
66102;HTU21D;52883;51.094;5.880;2022-10-20T00:29:30;10.97;118.99
66102;HTU21D;52883;51.094;5.880;2022-10-20T00:31:56;10.95;118.99
66102;HTU21D;52883;51.094;5.880;2022-10-20T00:34:21;10.93;118.99
66102;HTU21D;52883;51.094;5.880;2022-10-20T00:36:47;10.90;118.99
66102;HTU21D;52883;51.094;5.880;2022-10-20T00:39:12;10.90;118.99
66102;HTU21D;52883;51.094;5.880;2022-10-20T00:41:38;10.93;118.99
66102;HTU21D;52883;51.094;5.880;2022-10-20T00:47:20;10.92;118.99
66102;HTU21D;52883;51.094;5.880;2022-10-20T00:49:48;10.87;118.99
66102;HTU21D;52883;51.094;5.880;2022-10-20T00:52:17;10.88;118.99
66102;HTU21D;52883;51.094;5.880;2022-10-20T00:54:45;10.88;118.99
66102;HTU21D;52883;51.094;5.880;2022-10-20T00:57:11;10.89;118.99
66102;HTU21D;52883;51.094;5.880;2022-10-20T00:59:39;10.86;118.99
66102;HTU21D;52883;51.094;5.880;2022-10-20T01:02:08;10.84;118.99
66102;HTU21D;52883;51.094;5.880;2022-10-20T01:04:36;10.87;118.99
66102;HTU21D;52883;51.094;5.880;2022-10-20T01:07:02;10.86;118.99
66102;HTU21D;52883;51.094;5.880;2022-10-20T01:09:28;10.88;118.99
66102;HTU21D;52883;51.094;5.880;2022-10-20T01:12:27;10.89;118.99
66102;HTU21D;52883;51.094;5.880;2022-10-20T01:17:30;10.93;118.99
66102;HTU21D;52883;51.094;5.880;2022-10-20T01:26:05;10.96;118.99
66102;HTU21D;52883;51.094;5.880;2022-10-20T01:28:57;11.00;118.99
66102;HTU21D;52883;51.094;5.880;2022-10-20T01:31:46;11.02;118.99
66102;HTU21D;52883;51.094;5.880;2022-10-20T01:34:38;11.05;118.99
66102;HTU21D;52883;51.094;5.880;2022-10-20T01:37:18;11.11;118.99
66102;HTU21D;52883;51.094;5.880;2022-10-20T01:40:11;11.13;118.99
66102;HTU21D;52883;51.094;5.880;2022-10-20T01:42:42;11.12;118.99
66102;HTU21D;52883;51.094;5.880;2022-10-20T01:45:12;11.09;118.99
66102;HTU21D;52883;51.094;5.880;2022-10-20T01:47:41;11.09;118.99
66102;HTU21D;52883;51.094;5.880;2022-10-20T01:50:10;11.12;118.99
66102;HTU21D;52883;51.094;5.880;2022-10-20T01:52:36;11.14;118.99
66102;HTU21D;52883;51.094;5.880;2022-10-20T01:55:11;11.13;118.99
66102;HTU21D;52883;51.094;5.880;2022-10-20T02:00:38;11.24;118.99
66102;HTU21D;52883;51.094;5.880;2022-10-20T02:06:07;11.33;118.99
66102;HTU21D;52883;51.094;5.880;2022-10-20T02:08:42;11.37;118.99
66102;HTU21D;52883;51.094;5.880;2022-10-20T02:11:40;11.33;118.99
66102;HTU21D;52883;51.094;5.880;2022-10-20T02:14:11;11.38;118.99
66102;HTU21D;52883;51.094;5.880;2022-10-20T02:16:44;11.38;118.99
66102;HTU21D;52883;51.094;5.880;2022-10-20T02:19:14;11.40;118.99
66102;HTU21D;52883;51.094;5.880;2022-10-20T02:21:40;11.43;118.99
66102;HTU21D;52883;51.094;5.880;2022-10-20T02:24:08;11.45;118.99
66102;HTU21D;52883;51.094;5.880;2022-10-20T02:26:37;11.44;118.99
66102;HTU21D;52883;51.094;5.880;2022-10-20T02:29:13;11.44;118.99
66102;HTU21D;52883;51.094;5.880;2022-10-20T02:31:42;11.48;118.99
66102;HTU21D;52883;51.094;5.880;2022-10-20T02:34:10;11.47;118.99
66102;HTU21D;52883;51.094;5.880;2022-10-20T02:36:38;11.45;118.99
66102;HTU21D;52883;51.094;5.880;2022-10-20T02:39:05;11.44;118.99
66102;HTU21D;52883;51.094;5.880;2022-10-20T02:41:31;11.45;118.99
66102;HTU21D;52883;51.094;5.880;2022-10-20T02:43:56;11.47;118.99
66102;HTU21D;52883;51.094;5.880;2022-10-20T02:46:23;11.52;118.99
66102;HTU21D;52883;51.094;5.880;2022-10-20T02:48:48;11.55;118.99
66102;HTU21D;52883;51.094;5.880;2022-10-20T02:51:14;11.55;118.99
66102;HTU21D;52883;51.094;5.880;2022-10-20T02:53:42;11.59;118.99
66102;HTU21D;52883;51.094;5.880;2022-10-20T02:56:08;11.66;118.99
66102;HTU21D;52883;51.094;5.880;2022-10-20T02:58:34;11.70;118.99
66102;HTU21D;52883;51.094;5.880;2022-10-20T03:01:00;11.76;118.99
66102;HTU21D;52883;51.094;5.880;2022-10-20T03:03:26;11.82;118.99
66102;HTU21D;52883;51.094;5.880;2022-10-20T03:05:51;11.82;118.99
66102;HTU21D;52883;51.094;5.880;2022-10-20T03:08:17;11.86;118.99
66102;HTU21D;52883;51.094;5.880;2022-10-20T03:10:43;11.87;118.99
66102;HTU21D;52883;51.094;5.880;2022-10-20T03:13:09;11.96;118.99
66102;HTU21D;52883;51.094;5.880;2022-10-20T03:15:35;12.00;118.99
66102;HTU21D;52883;51.094;5.880;2022-10-20T03:18:01;12.07;118.99
66102;HTU21D;52883;51.094;5.880;2022-10-20T03:20:27;12.14;118.99
66102;HTU21D;52883;51.094;5.880;2022-10-20T03:22:52;12.16;118.99
66102;HTU21D;52883;51.094;5.880;2022-10-20T03:25:18;12.20;118.99
66102;HTU21D;52883;51.094;5.880;2022-10-20T03:27:43;12.25;118.99
66102;HTU21D;52883;51.094;5.880;2022-10-20T03:30:09;12.23;118.99
66102;HTU21D;52883;51.094;5.880;2022-10-20T03:32:35;12.25;118.99
66102;HTU21D;52883;51.094;5.880;2022-10-20T03:35:00;12.23;118.99
66102;HTU21D;52883;51.094;5.880;2022-10-20T03:37:26;12.25;118.99
66102;HTU21D;52883;51.094;5.880;2022-10-20T03:39:51;12.28;118.99
66102;HTU21D;52883;51.094;5.880;2022-10-20T03:42:17;12.26;118.99
66102;HTU21D;52883;51.094;5.880;2022-10-20T03:44:43;12.22;118.99
66102;HTU21D;52883;51.094;5.880;2022-10-20T03:47:12;12.29;118.99
66102;HTU21D;52883;51.094;5.880;2022-10-20T03:49:38;12.30;118.99
66102;HTU21D;52883;51.094;5.880;2022-10-20T03:52:04;12.29;118.99
66102;HTU21D;52883;51.094;5.880;2022-10-20T03:54:30;12.26;118.99
66102;HTU21D;52883;51.094;5.880;2022-10-20T03:56:56;12.28;118.99
66102;HTU21D;52883;51.094;5.880;2022-10-20T03:59:22;12.26;118.99
66102;HTU21D;52883;51.094;5.880;2022-10-20T04:01:48;12.30;118.99
66102;HTU21D;52883;51.094;5.880;2022-10-20T04:04:13;12.29;118.99
66102;HTU21D;52883;51.094;5.880;2022-10-20T04:06:39;12.26;118.99
66102;HTU21D;52883;51.094;5.880;2022-10-20T04:09:05;12.27;118.99
66102;HTU21D;52883;51.094;5.880;2022-10-20T04:11:31;12.23;118.99
66102;HTU21D;52883;51.094;5.880;2022-10-20T04:13:57;12.27;118.99
66102;HTU21D;52883;51.094;5.880;2022-10-20T04:16:22;12.29;118.99
66102;HTU21D;52883;51.094;5.880;2022-10-20T04:18:48;12.26;118.99
66102;HTU21D;52883;51.094;5.880;2022-10-20T04:21:15;12.27;118.99
66102;HTU21D;52883;51.094;5.880;2022-10-20T04:23:41;12.29;118.99
66102;HTU21D;52883;51.094;5.880;2022-10-20T04:26:11;12.29;118.99
66102;HTU21D;52883;51.094;5.880;2022-10-20T04:28:37;12.31;118.99
66102;HTU21D;52883;51.094;5.880;2022-10-20T04:31:04;12.35;118.99
66102;HTU21D;52883;51.094;5.880;2022-10-20T04:33:30;12.33;118.99
66102;HTU21D;52883;51.094;5.880;2022-10-20T04:35:58;12.36;118.99
66102;HTU21D;52883;51.094;5.880;2022-10-20T04:38:23;12.35;118.99
66102;HTU21D;52883;51.094;5.880;2022-10-20T04:40:57;12.33;118.99
66102;HTU21D;52883;51.094;5.880;2022-10-20T04:43:23;12.30;118.99
66102;HTU21D;52883;51.094;5.880;2022-10-20T04:45:48;12.30;118.99
66102;HTU21D;52883;51.094;5.880;2022-10-20T04:48:15;12.28;118.99
66102;HTU21D;52883;51.094;5.880;2022-10-20T04:50:40;12.20;118.99
66102;HTU21D;52883;51.094;5.880;2022-10-20T04:53:07;12.18;118.99
66102;HTU21D;52883;51.094;5.880;2022-10-20T04:55:34;12.19;118.99
66102;HTU21D;52883;51.094;5.880;2022-10-20T04:57:59;12.08;118.99
66102;HTU21D;52883;51.094;5.880;2022-10-20T05:00:25;12.07;118.99
66102;HTU21D;52883;51.094;5.880;2022-10-20T05:02:50;12.07;118.99
66102;HTU21D;52883;51.094;5.880;2022-10-20T05:05:16;12.01;118.99
66102;HTU21D;52883;51.094;5.880;2022-10-20T05:07:41;11.98;118.99
66102;HTU21D;52883;51.094;5.880;2022-10-20T05:10:07;11.96;118.99
66102;HTU21D;52883;51.094;5.880;2022-10-20T05:12:33;11.96;118.99
66102;HTU21D;52883;51.094;5.880;2022-10-20T05:14:58;11.94;118.99
66102;HTU21D;52883;51.094;5.880;2022-10-20T05:17:24;11.91;118.99
66102;HTU21D;52883;51.094;5.880;2022-10-20T05:19:50;11.89;118.99
66102;HTU21D;52883;51.094;5.880;2022-10-20T05:22:15;11.91;118.99
66102;HTU21D;52883;51.094;5.880;2022-10-20T05:24:41;11.93;118.99
66102;HTU21D;52883;51.094;5.880;2022-10-20T05:27:06;11.96;118.99
66102;HTU21D;52883;51.094;5.880;2022-10-20T05:29:32;11.90;118.99
66102;HTU21D;52883;51.094;5.880;2022-10-20T05:31:57;11.90;118.99
66102;HTU21D;52883;51.094;5.880;2022-10-20T05:34:23;11.88;118.99
66102;HTU21D;52883;51.094;5.880;2022-10-20T05:36:51;11.90;118.99
66102;HTU21D;52883;51.094;5.880;2022-10-20T05:39:17;11.86;118.99
66102;HTU21D;52883;51.094;5.880;2022-10-20T05:41:43;11.83;118.99
66102;HTU21D;52883;51.094;5.880;2022-10-20T05:44:11;11.84;118.99
66102;HTU21D;52883;51.094;5.880;2022-10-20T05:46:38;11.85;118.99
66102;HTU21D;52883;51.094;5.880;2022-10-20T05:49:13;11.83;118.99
66102;HTU21D;52883;51.094;5.880;2022-10-20T05:51:40;11.81;118.99
66102;HTU21D;52883;51.094;5.880;2022-10-20T05:54:08;11.81;118.99
66102;HTU21D;52883;51.094;5.880;2022-10-20T05:56:34;11.79;118.99
66102;HTU21D;52883;51.094;5.880;2022-10-20T05:59:00;11.79;118.99
66102;HTU21D;52883;51.094;5.880;2022-10-20T06:01:28;11.78;118.99
66102;HTU21D;52883;51.094;5.880;2022-10-20T06:04:05;11.81;118.99
66102;HTU21D;52883;51.094;5.880;2022-10-20T06:06:33;11.83;118.99
66102;HTU21D;52883;51.094;5.880;2022-10-20T06:09:04;11.85;118.99
66102;HTU21D;52883;51.094;5.880;2022-10-20T06:11:30;11.85;118.99
66102;HTU21D;52883;51.094;5.880;2022-10-20T06:13:55;11.85;118.99
66102;HTU21D;52883;51.094;5.880;2022-10-20T06:16:24;11.83;118.99
66102;HTU21D;52883;51.094;5.880;2022-10-20T06:18:51;11.87;118.99
66102;HTU21D;52883;51.094;5.880;2022-10-20T06:21:19;11.86;118.99
66102;HTU21D;52883;51.094;5.880;2022-10-20T06:23:46;11.86;118.99
66102;HTU21D;52883;51.094;5.880;2022-10-20T06:26:15;11.88;118.99
66102;HTU21D;52883;51.094;5.880;2022-10-20T06:28:45;11.90;118.99
66102;HTU21D;52883;51.094;5.880;2022-10-20T06:31:16;11.92;118.99
66102;HTU21D;52883;51.094;5.880;2022-10-20T06:33:43;11.97;118.99
66102;HTU21D;52883;51.094;5.880;2022-10-20T06:36:09;11.99;118.99
66102;HTU21D;52883;51.094;5.880;2022-10-20T06:38:35;12.03;118.99
66102;HTU21D;52883;51.094;5.880;2022-10-20T06:41:04;12.04;118.99
66102;HTU21D;52883;51.094;5.880;2022-10-20T06:43:30;12.05;118.99
66102;HTU21D;52883;51.094;5.880;2022-10-20T06:46:01;12.07;118.99
66102;HTU21D;52883;51.094;5.880;2022-10-20T06:48:27;12.07;118.99
66102;HTU21D;52883;51.094;5.880;2022-10-20T06:51:01;12.12;118.99
66102;HTU21D;52883;51.094;5.880;2022-10-20T06:53:28;12.14;118.99
66102;HTU21D;52883;51.094;5.880;2022-10-20T06:55:59;12.18;118.99
66102;HTU21D;52883;51.094;5.880;2022-10-20T06:58:25;12.21;118.99
66102;HTU21D;52883;51.094;5.880;2022-10-20T07:03:24;12.22;118.99
66102;HTU21D;52883;51.094;5.880;2022-10-20T07:05:49;12.29;118.99
66102;HTU21D;52883;51.094;5.880;2022-10-20T07:08:15;12.30;118.99
66102;HTU21D;52883;51.094;5.880;2022-10-20T07:10:40;12.33;118.99
66102;HTU21D;52883;51.094;5.880;2022-10-20T07:13:06;12.36;118.99
66102;HTU21D;52883;51.094;5.880;2022-10-20T07:15:31;12.40;118.99
66102;HTU21D;52883;51.094;5.880;2022-10-20T07:17:57;12.44;118.99
66102;HTU21D;52883;51.094;5.880;2022-10-20T07:20:22;12.51;118.99
66102;HTU21D;52883;51.094;5.880;2022-10-20T07:22:48;12.57;118.99
66102;HTU21D;52883;51.094;5.880;2022-10-20T07:25:13;12.66;118.99
66102;HTU21D;52883;51.094;5.880;2022-10-20T07:27:39;12.77;118.99
66102;HTU21D;52883;51.094;5.880;2022-10-20T07:30:05;12.85;118.99
66102;HTU21D;52883;51.094;5.880;2022-10-20T07:32:30;12.95;118.99
66102;HTU21D;52883;51.094;5.880;2022-10-20T07:34:56;13.04;118.99
66102;HTU21D;52883;51.094;5.880;2022-10-20T07:37:22;13.16;118.99
66102;HTU21D;52883;51.094;5.880;2022-10-20T07:39:47;13.24;118.99
66102;HTU21D;52883;51.094;5.880;2022-10-20T07:42:13;13.33;118.99
66102;HTU21D;52883;51.094;5.880;2022-10-20T07:44:38;13.41;118.99
66102;HTU21D;52883;51.094;5.880;2022-10-20T07:47:04;13.47;118.99
66102;HTU21D;52883;51.094;5.880;2022-10-20T07:49:29;13.55;118.99
66102;HTU21D;52883;51.094;5.880;2022-10-20T07:51:55;13.61;118.99
66102;HTU21D;52883;51.094;5.880;2022-10-20T07:54:21;13.65;118.99
66102;HTU21D;52883;51.094;5.880;2022-10-20T07:56:46;13.69;118.99
66102;HTU21D;52883;51.094;5.880;2022-10-20T07:59:13;13.70;118.99
66102;HTU21D;52883;51.094;5.880;2022-10-20T08:01:39;13.76;118.99
66102;HTU21D;52883;51.094;5.880;2022-10-20T08:04:05;13.83;118.99
66102;HTU21D;52883;51.094;5.880;2022-10-20T08:06:30;13.96;118.99
66102;HTU21D;52883;51.094;5.880;2022-10-20T08:08:56;14.11;118.99
66102;HTU21D;52883;51.094;5.880;2022-10-20T08:11:22;14.28;118.99
66102;HTU21D;52883;51.094;5.880;2022-10-20T08:13:48;14.42;118.99
66102;HTU21D;52883;51.094;5.880;2022-10-20T08:16:14;14.54;118.99
66102;HTU21D;52883;51.094;5.880;2022-10-20T08:18:41;14.70;118.99
66102;HTU21D;52883;51.094;5.880;2022-10-20T08:21:14;14.96;118.99
66102;HTU21D;52883;51.094;5.880;2022-10-20T08:23:42;15.16;118.99
66102;HTU21D;52883;51.094;5.880;2022-10-20T08:26:09;15.26;118.99
66102;HTU21D;52883;51.094;5.880;2022-10-20T08:28:35;15.32;118.99
66102;HTU21D;52883;51.094;5.880;2022-10-20T08:31:03;15.28;118.99
66102;HTU21D;52883;51.094;5.880;2022-10-20T08:33:30;15.18;118.99
66102;HTU21D;52883;51.094;5.880;2022-10-20T08:36:02;15.15;118.99
66102;HTU21D;52883;51.094;5.880;2022-10-20T08:38:28;15.14;118.99
66102;HTU21D;52883;51.094;5.880;2022-10-20T08:40:55;15.17;118.99
66102;HTU21D;52883;51.094;5.880;2022-10-20T08:43:21;15.19;118.99
66102;HTU21D;52883;51.094;5.880;2022-10-20T08:45:47;15.25;118.99
66102;HTU21D;52883;51.094;5.880;2022-10-20T08:48:21;15.33;118.99
66102;HTU21D;52883;51.094;5.880;2022-10-20T08:50:50;15.40;118.99
66102;HTU21D;52883;51.094;5.880;2022-10-20T08:53:20;15.46;118.99
66102;HTU21D;52883;51.094;5.880;2022-10-20T08:55:48;15.51;118.99
66102;HTU21D;52883;51.094;5.880;2022-10-20T08:58:16;15.57;118.99
66102;HTU21D;52883;51.094;5.880;2022-10-20T09:00:43;15.57;118.99
66102;HTU21D;52883;51.094;5.880;2022-10-20T09:03:26;15.57;118.99
66102;HTU21D;52883;51.094;5.880;2022-10-20T09:06:05;15.61;118.99
66102;HTU21D;52883;51.094;5.880;2022-10-20T09:08:35;15.68;118.99
66102;HTU21D;52883;51.094;5.880;2022-10-20T09:11:03;15.85;118.99
66102;HTU21D;52883;51.094;5.880;2022-10-20T09:13:32;15.99;118.99
66102;HTU21D;52883;51.094;5.880;2022-10-20T09:16:24;16.00;118.99
66102;HTU21D;52883;51.094;5.880;2022-10-20T09:18:55;15.78;118.99
66102;HTU21D;52883;51.094;5.880;2022-10-20T09:21:22;15.65;118.99
66102;HTU21D;52883;51.094;5.880;2022-10-20T09:23:51;15.47;118.99
66102;HTU21D;52883;51.094;5.880;2022-10-20T09:26:26;15.24;118.99
66102;HTU21D;52883;51.094;5.880;2022-10-20T09:29:12;15.00;118.99
66102;HTU21D;52883;51.094;5.880;2022-10-20T09:36:54;14.77;118.99
66102;HTU21D;52883;51.094;5.880;2022-10-20T09:39:31;14.75;118.99
66102;HTU21D;52883;51.094;5.880;2022-10-20T09:42:12;14.70;118.99
66102;HTU21D;52883;51.094;5.880;2022-10-20T09:44:48;14.64;118.99
66102;HTU21D;52883;51.094;5.880;2022-10-20T09:47:16;14.63;118.99
66102;HTU21D;52883;51.094;5.880;2022-10-20T09:49:44;14.73;118.99
66102;HTU21D;52883;51.094;5.880;2022-10-20T09:52:21;14.93;118.99
66102;HTU21D;52883;51.094;5.880;2022-10-20T09:54:58;15.08;118.99
66102;HTU21D;52883;51.094;5.880;2022-10-20T09:57:25;15.16;118.99
66102;HTU21D;52883;51.094;5.880;2022-10-20T09:59:53;15.15;118.99
66102;HTU21D;52883;51.094;5.880;2022-10-20T10:04:47;14.99;118.99
66102;HTU21D;52883;51.094;5.880;2022-10-20T10:10:01;14.85;118.99
66102;HTU21D;52883;51.094;5.880;2022-10-20T10:12:29;14.89;118.99
66102;HTU21D;52883;51.094;5.880;2022-10-20T10:15:05;15.04;118.99
66102;HTU21D;52883;51.094;5.880;2022-10-20T10:22:35;15.41;118.99
66102;HTU21D;52883;51.094;5.880;2022-10-20T10:25:02;15.41;118.99
66102;HTU21D;52883;51.094;5.880;2022-10-20T10:27:35;15.41;118.99
66102;HTU21D;52883;51.094;5.880;2022-10-20T10:32:48;15.38;118.99
66102;HTU21D;52883;51.094;5.880;2022-10-20T10:37:57;15.41;118.99
66102;HTU21D;52883;51.094;5.880;2022-10-20T10:43:39;15.42;118.99
66102;HTU21D;52883;51.094;5.880;2022-10-20T10:46:21;15.37;118.99
66102;HTU21D;52883;51.094;5.880;2022-10-20T10:49:16;15.32;118.99
66102;HTU21D;52883;51.094;5.880;2022-10-20T10:54:48;15.19;118.99
66102;HTU21D;52883;51.094;5.880;2022-10-20T11:00:20;15.08;118.99
66102;HTU21D;52883;51.094;5.880;2022-10-20T11:05:57;14.97;118.99
66102;HTU21D;52883;51.094;5.880;2022-10-20T11:08:45;14.85;118.99
66102;HTU21D;52883;51.094;5.880;2022-10-20T11:19:52;14.38;118.99
66102;HTU21D;52883;51.094;5.880;2022-10-20T11:22:25;14.27;118.99
66102;HTU21D;52883;51.094;5.880;2022-10-20T11:25:26;14.14;118.99
66102;HTU21D;52883;51.094;5.880;2022-10-20T11:27:55;14.14;118.99
66102;HTU21D;52883;51.094;5.880;2022-10-20T11:30:22;14.15;118.99
66102;HTU21D;52883;51.094;5.880;2022-10-20T11:33:02;14.24;118.99
66102;HTU21D;52883;51.094;5.880;2022-10-20T11:35:43;14.26;118.99
66102;HTU21D;52883;51.094;5.880;2022-10-20T11:38:19;14.28;118.99
66102;HTU21D;52883;51.094;5.880;2022-10-20T11:41:43;14.32;118.99
66102;HTU21D;52883;51.094;5.880;2022-10-20T11:44:07;14.45;118.99
66102;HTU21D;52883;51.094;5.880;2022-10-20T11:46:46;14.59;118.99
66102;HTU21D;52883;51.094;5.880;2022-10-20T11:49:13;14.70;118.99
66102;HTU21D;52883;51.094;5.880;2022-10-20T11:57:52;14.86;118.99
66102;HTU21D;52883;51.094;5.880;2022-10-20T12:00:41;14.95;118.99
66102;HTU21D;52883;51.094;5.880;2022-10-20T12:03:26;15.13;118.99
66102;HTU21D;52883;51.094;5.880;2022-10-20T12:09:17;15.74;118.99
66102;HTU21D;52883;51.094;5.880;2022-10-20T12:11:53;16.20;118.99
66102;HTU21D;52883;51.094;5.880;2022-10-20T12:14:42;16.65;118.99
66102;HTU21D;52883;51.094;5.880;2022-10-20T12:19:39;17.06;118.99
66102;HTU21D;52883;51.094;5.880;2022-10-20T12:27:29;16.56;118.99
66102;HTU21D;52883;51.094;5.880;2022-10-20T12:32:54;16.54;118.99
66102;HTU21D;52883;51.094;5.880;2022-10-20T12:38:00;16.91;118.99
66102;HTU21D;52883;51.094;5.880;2022-10-20T12:40:31;16.98;118.99
66102;HTU21D;52883;51.094;5.880;2022-10-20T12:42:59;17.05;118.99
66102;HTU21D;52883;51.094;5.880;2022-10-20T12:45:40;17.00;118.99
66102;HTU21D;52883;51.094;5.880;2022-10-20T12:48:19;16.88;118.99
66102;HTU21D;52883;51.094;5.880;2022-10-20T12:50:49;16.79;118.99
66102;HTU21D;52883;51.094;5.880;2022-10-20T12:53:23;16.84;118.99
66102;HTU21D;52883;51.094;5.880;2022-10-20T12:56:08;16.92;118.99
66102;HTU21D;52883;51.094;5.880;2022-10-20T12:58:37;17.05;118.99
66102;HTU21D;52883;51.094;5.880;2022-10-20T13:01:09;17.23;118.99
66102;HTU21D;52883;51.094;5.880;2022-10-20T13:03:40;17.41;118.99
66102;HTU21D;52883;51.094;5.880;2022-10-20T13:09:16;18.27;118.99
66102;HTU21D;52883;51.094;5.880;2022-10-20T13:11:55;18.66;118.99
66102;HTU21D;52883;51.094;5.880;2022-10-20T13:14:32;18.58;118.99
66102;HTU21D;52883;51.094;5.880;2022-10-20T13:17:51;18.20;118.99
66102;HTU21D;52883;51.094;5.880;2022-10-20T13:23:42;17.99;118.99
66102;HTU21D;52883;51.094;5.880;2022-10-20T13:26:24;18.19;118.99
66102;HTU21D;52883;51.094;5.880;2022-10-20T13:28:53;18.33;118.99
66102;HTU21D;52883;51.094;5.880;2022-10-20T13:31:44;18.42;118.99
66102;HTU21D;52883;51.094;5.880;2022-10-20T13:37:40;18.58;118.99
66102;HTU21D;52883;51.094;5.880;2022-10-20T13:43:36;18.93;118.99
66102;HTU21D;52883;51.094;5.880;2022-10-20T13:52:10;19.46;118.99
66102;HTU21D;52883;51.094;5.880;2022-10-20T13:54:42;19.46;118.99
66102;HTU21D;52883;51.094;5.880;2022-10-20T13:57:29;19.27;118.99
66102;HTU21D;52883;51.094;5.880;2022-10-20T13:59:58;19.18;118.99
66102;HTU21D;52883;51.094;5.880;2022-10-20T14:02:30;19.06;118.99
66102;HTU21D;52883;51.094;5.880;2022-10-20T14:05:05;18.86;118.99
66102;HTU21D;52883;51.094;5.880;2022-10-20T14:07:36;18.63;118.99
66102;HTU21D;52883;51.094;5.880;2022-10-20T14:10:03;18.51;118.99
66102;HTU21D;52883;51.094;5.880;2022-10-20T14:12:30;18.46;118.99
66102;HTU21D;52883;51.094;5.880;2022-10-20T14:14:57;18.38;118.99
66102;HTU21D;52883;51.094;5.880;2022-10-20T14:17:24;18.28;118.99
66102;HTU21D;52883;51.094;5.880;2022-10-20T14:20:07;18.17;118.99
66102;HTU21D;52883;51.094;5.880;2022-10-20T14:22:34;18.09;118.99
66102;HTU21D;52883;51.094;5.880;2022-10-20T14:25:01;18.03;118.99
66102;HTU21D;52883;51.094;5.880;2022-10-20T14:27:32;17.96;118.99
66102;HTU21D;52883;51.094;5.880;2022-10-20T14:30:04;17.95;118.99
66102;HTU21D;52883;51.094;5.880;2022-10-20T14:32:34;17.97;118.99
66102;HTU21D;52883;51.094;5.880;2022-10-20T14:37:53;17.89;118.99
66102;HTU21D;52883;51.094;5.880;2022-10-20T14:40:26;17.83;118.99
66102;HTU21D;52883;51.094;5.880;2022-10-20T14:43:16;17.80;118.99
66102;HTU21D;52883;51.094;5.880;2022-10-20T14:45:53;17.81;118.99
66102;HTU21D;52883;51.094;5.880;2022-10-20T14:48:21;17.79;118.99
66102;HTU21D;52883;51.094;5.880;2022-10-20T14:50:47;17.78;118.99
66102;HTU21D;52883;51.094;5.880;2022-10-20T14:53:28;17.76;118.99
66102;HTU21D;52883;51.094;5.880;2022-10-20T14:55:56;17.73;118.99
66102;HTU21D;52883;51.094;5.880;2022-10-20T15:01:31;17.68;118.99
66102;HTU21D;52883;51.094;5.880;2022-10-20T15:04:22;17.67;118.99
66102;HTU21D;52883;51.094;5.880;2022-10-20T15:06:48;17.67;118.99
66102;HTU21D;52883;51.094;5.880;2022-10-20T15:09:22;17.67;118.99
66102;HTU21D;52883;51.094;5.880;2022-10-20T15:11:49;17.65;118.99
66102;HTU21D;52883;51.094;5.880;2022-10-20T15:14:16;17.66;118.99
66102;HTU21D;52883;51.094;5.880;2022-10-20T15:16:45;17.65;118.99
66102;HTU21D;52883;51.094;5.880;2022-10-20T15:24:34;17.66;118.99
66102;HTU21D;52883;51.094;5.880;2022-10-20T15:27:00;17.66;118.99
66102;HTU21D;52883;51.094;5.880;2022-10-20T15:29:27;17.63;118.99
66102;HTU21D;52883;51.094;5.880;2022-10-20T15:31:54;17.64;118.99
66102;HTU21D;52883;51.094;5.880;2022-10-20T15:34:20;17.65;118.99
66102;HTU21D;52883;51.094;5.880;2022-10-20T15:36:47;17.65;118.99
66102;HTU21D;52883;51.094;5.880;2022-10-20T15:39:12;17.64;118.99
66102;HTU21D;52883;51.094;5.880;2022-10-20T15:41:39;17.63;118.99
66102;HTU21D;52883;51.094;5.880;2022-10-20T15:44:15;17.62;118.99
66102;HTU21D;52883;51.094;5.880;2022-10-20T15:46:42;17.58;118.99
66102;HTU21D;52883;51.094;5.880;2022-10-20T15:49:09;17.55;118.99
66102;HTU21D;52883;51.094;5.880;2022-10-20T15:51:37;17.50;118.99
66102;HTU21D;52883;51.094;5.880;2022-10-20T15:54:05;17.46;118.99
66102;HTU21D;52883;51.094;5.880;2022-10-20T15:56:31;17.38;118.99
66102;HTU21D;52883;51.094;5.880;2022-10-20T15:58:58;17.26;118.99
66102;HTU21D;52883;51.094;5.880;2022-10-20T16:01:23;17.20;118.99
66102;HTU21D;52883;51.094;5.880;2022-10-20T16:03:50;17.11;118.99
66102;HTU21D;52883;51.094;5.880;2022-10-20T16:06:17;17.03;118.99
66102;HTU21D;52883;51.094;5.880;2022-10-20T16:08:45;16.93;118.99
66102;HTU21D;52883;51.094;5.880;2022-10-20T16:11:13;16.84;118.99
66102;HTU21D;52883;51.094;5.880;2022-10-20T16:13:39;16.72;118.99
66102;HTU21D;52883;51.094;5.880;2022-10-20T16:16:11;16.62;118.99
66102;HTU21D;52883;51.094;5.880;2022-10-20T16:18:37;16.51;118.99
66102;HTU21D;52883;51.094;5.880;2022-10-20T16:21:03;16.45;118.99
66102;HTU21D;52883;51.094;5.880;2022-10-20T16:23:30;16.33;118.99
66102;HTU21D;52883;51.094;5.880;2022-10-20T16:25:55;16.22;118.99
66102;HTU21D;52883;51.094;5.880;2022-10-20T16:28:21;16.14;118.99
66102;HTU21D;52883;51.094;5.880;2022-10-20T16:30:46;16.04;118.99
66102;HTU21D;52883;51.094;5.880;2022-10-20T16:33:12;15.98;118.99
66102;HTU21D;52883;51.094;5.880;2022-10-20T16:35:41;15.90;118.99
66102;HTU21D;52883;51.094;5.880;2022-10-20T16:38:07;15.84;118.99
66102;HTU21D;52883;51.094;5.880;2022-10-20T16:40:32;15.75;118.99
66102;HTU21D;52883;51.094;5.880;2022-10-20T16:42:59;15.70;118.99
66102;HTU21D;52883;51.094;5.880;2022-10-20T16:45:25;15.66;118.99
66102;HTU21D;52883;51.094;5.880;2022-10-20T16:47:51;15.62;118.99
66102;HTU21D;52883;51.094;5.880;2022-10-20T16:50:16;15.56;118.99
66102;HTU21D;52883;51.094;5.880;2022-10-20T16:52:42;15.52;118.99
66102;HTU21D;52883;51.094;5.880;2022-10-20T16:55:08;15.46;118.99
66102;HTU21D;52883;51.094;5.880;2022-10-20T16:57:36;15.42;118.99
66102;HTU21D;52883;51.094;5.880;2022-10-20T17:00:06;15.36;118.99
66102;HTU21D;52883;51.094;5.880;2022-10-20T17:02:33;15.32;118.99
66102;HTU21D;52883;51.094;5.880;2022-10-20T17:04:59;15.30;118.99
66102;HTU21D;52883;51.094;5.880;2022-10-20T17:07:25;15.31;118.99
66102;HTU21D;52883;51.094;5.880;2022-10-20T17:09:50;15.28;118.99
66102;HTU21D;52883;51.094;5.880;2022-10-20T17:12:16;15.27;118.99